createdAt,value
2018-01-14T00:00:12.703Z,26.05
2018-01-14T00:02:38.731Z,27.77
2018-01-14T00:05:04.701Z,24.12
2018-01-14T00:07:30.659Z,25.80
2018-01-14T00:09:57.392Z,32.30
2018-01-14T00:12:23.481Z,30.98
2018-01-14T00:14:49.909Z,26.90
2018-01-14T00:17:15.900Z,26.30
2018-01-14T00:19:41.840Z,25.83
2018-01-14T00:22:08.420Z,23.42
2018-01-14T00:24:34.368Z,28.20
2018-01-14T00:27:00.331Z,28.30
2018-01-14T00:29:26.437Z,31.27
2018-01-14T00:31:52.403Z,27.95
2018-01-14T00:34:18.527Z,26.23
2018-01-14T00:36:44.537Z,19.75
2018-01-14T00:39:10.515Z,24.85
2018-01-14T00:41:36.492Z,23.42
2018-01-14T00:44:02.473Z,21.70
2018-01-14T00:46:28.406Z,25.80
2018-01-14T00:48:54.499Z,22.37
2018-01-14T00:51:21.239Z,22.83
2018-01-14T00:53:47.945Z,23.62
2018-01-14T00:56:13.894Z,22.25
2018-01-14T00:58:40.599Z,20.50
2018-01-14T01:01:06.644Z,23.20
2018-01-14T01:03:32.635Z,19.55
2018-01-14T01:05:58.601Z,21.05
2018-01-14T01:08:25.354Z,21.70
2018-01-14T01:10:51.298Z,23.33
2018-01-14T01:13:17.247Z,21.13
2018-01-14T01:15:43.248Z,21.87
2018-01-14T01:18:09.206Z,28.48
2018-01-14T01:20:35.171Z,21.25
2018-01-14T01:23:01.251Z,20.70
2018-01-14T01:25:27.198Z,21.33
2018-01-14T01:27:53.925Z,21.90
2018-01-14T01:30:19.883Z,25.48
2018-01-14T01:32:45.957Z,19.08
2018-01-14T01:35:12.062Z,25.17
2018-01-14T01:37:38.015Z,23.00
2018-01-14T01:40:04.032Z,24.73
2018-01-14T01:42:29.976Z,27.52
2018-01-14T01:44:55.984Z,23.23
2018-01-14T01:47:22.076Z,24.25
2018-01-14T01:49:48.017Z,22.60
2018-01-14T01:52:14.004Z,24.17
2018-01-14T01:54:39.948Z,25.92
2018-01-14T01:57:05.927Z,30.13
2018-01-14T01:59:31.911Z,23.25
2018-01-14T02:01:57.863Z,25.20
2018-01-14T02:04:23.802Z,31.23
2018-01-14T02:06:49.897Z,28.13
2018-01-14T02:09:16.605Z,28.38
2018-01-14T02:11:42.572Z,29.02
2018-01-14T02:14:08.512Z,26.35
2018-01-14T02:16:34.503Z,28.03
2018-01-14T02:19:01.212Z,24.92
2018-01-14T02:21:27.171Z,26.73
2018-01-14T02:23:54.036Z,30.90
2018-01-14T02:26:19.992Z,31.02
2018-01-14T02:28:45.952Z,29.73
2018-01-14T02:31:12.660Z,32.53
2018-01-14T02:33:38.628Z,31.52
2018-01-14T02:36:04.608Z,28.70
2018-01-14T02:38:30.555Z,28.90
2018-01-14T02:40:57.381Z,30.80
2018-01-14T02:43:23.320Z,30.40
2018-01-14T02:45:50.170Z,30.60
2018-01-14T02:48:16.248Z,28.75
2018-01-14T02:50:42.209Z,29.27
2018-01-14T02:53:08.920Z,32.03
2018-01-14T02:55:34.932Z,31.20
2018-01-14T02:58:00.918Z,33.35
2018-01-14T03:00:26.880Z,34.97
2018-01-14T03:02:52.842Z,29.70
2018-01-14T03:05:19.567Z,29.90
2018-01-14T03:07:45.520Z,32.97
2018-01-14T03:10:11.474Z,36.17
2018-01-14T03:12:37.565Z,33.90
2018-01-14T03:15:03.535Z,31.20
2018-01-14T03:17:29.477Z,32.83
2018-01-14T03:19:55.421Z,30.83
2018-01-14T03:22:21.404Z,39.13
2018-01-14T03:24:48.711Z,33.53
2018-01-14T03:27:15.152Z,29.17
2018-01-14T03:29:41.134Z,35.33
2018-01-14T03:32:07.975Z,34.78
2018-01-14T03:34:33.980Z,30.55
2018-01-14T03:36:59.952Z,31.48
2018-01-14T03:39:25.893Z,31.30
2018-01-14T03:41:51.852Z,30.45
2018-01-14T03:44:17.938Z,35.42
2018-01-14T03:46:44.098Z,34.25
2018-01-14T03:49:10.063Z,28.95
2018-01-14T03:51:36.040Z,35.25
2018-01-14T03:54:02.024Z,33.05
2018-01-14T03:56:27.990Z,33.90
2018-01-14T03:58:53.932Z,29.10
2018-01-14T04:01:20.767Z,35.08
2018-01-14T04:03:46.703Z,29.65
2018-01-14T04:06:13.533Z,29.37
2018-01-14T04:08:40.248Z,36.42
2018-01-14T04:11:06.232Z,37.30
2018-01-14T04:13:32.163Z,31.48
2018-01-14T04:15:58.158Z,38.40
2018-01-14T04:18:24.833Z,31.65
2018-01-14T04:20:50.775Z,32.80
2018-01-14T04:23:16.852Z,35.10
2018-01-14T04:25:42.798Z,29.60
2018-01-14T04:28:08.881Z,35.13
2018-01-14T04:30:35.597Z,32.25
2018-01-14T04:33:01.527Z,32.92
2018-01-14T04:35:27.606Z,32.27
2018-01-14T04:37:53.564Z,29.40
2018-01-14T04:40:19.504Z,31.77
2018-01-14T04:42:46.247Z,31.90
2018-01-14T04:45:13.059Z,33.72
2018-01-14T04:47:39.027Z,32.30
2018-01-14T04:50:04.959Z,30.35
2018-01-14T04:52:30.905Z,30.60
2018-01-14T04:54:56.872Z,32.47
2018-01-14T04:57:23.567Z,30.37
2018-01-14T04:59:49.668Z,33.30
2018-01-14T05:02:15.622Z,28.60
2018-01-14T05:04:41.597Z,33.13
2018-01-14T05:07:07.547Z,37.90
2018-01-14T05:09:33.481Z,32.67
2018-01-14T05:11:59.693Z,37.07
2018-01-14T05:14:25.648Z,31.95
2018-01-14T05:16:51.620Z,34.75
2018-01-14T05:19:17.561Z,31.23
2018-01-14T05:21:43.539Z,26.40
2018-01-14T05:24:09.513Z,30.52
2018-01-14T05:26:35.489Z,29.45
2018-01-14T05:29:01.436Z,31.58
2018-01-14T05:31:27.559Z,31.52
2018-01-14T05:33:53.510Z,30.27
2018-01-14T05:36:19.464Z,32.35
2018-01-14T05:38:45.471Z,33.97
2018-01-14T05:41:11.419Z,31.05
2018-01-14T05:43:37.359Z,35.80
2018-01-14T05:46:03.608Z,29.00
2018-01-14T05:48:29.528Z,27.85
2018-01-14T05:50:55.507Z,32.03
2018-01-14T05:53:22.200Z,25.35
2018-01-14T05:55:48.146Z,29.02
2018-01-14T05:58:14.131Z,26.17
2018-01-14T06:00:40.071Z,31.15
2018-01-14T06:03:06.022Z,27.55
2018-01-14T06:05:32.111Z,36.38
2018-01-14T06:07:58.052Z,31.98
2018-01-14T06:10:24.000Z,32.22
2018-01-14T06:12:50.707Z,28.20
2018-01-14T06:15:16.643Z,28.73
2018-01-14T06:17:42.635Z,32.57
2018-01-14T06:20:08.580Z,29.33
2018-01-14T06:22:34.533Z,30.58
2018-01-14T06:25:01.369Z,29.90
2018-01-14T06:27:28.064Z,36.33
2018-01-14T06:29:54.109Z,31.90
2018-01-14T06:32:20.066Z,29.17
2018-01-14T06:34:46.756Z,32.53
2018-01-14T06:37:12.727Z,34.53
2018-01-14T06:39:39.400Z,29.67
2018-01-14T06:42:05.399Z,29.42
2018-01-14T06:44:31.505Z,32.33
2018-01-14T06:46:58.194Z,33.17
2018-01-14T06:49:24.156Z,31.52
2018-01-14T06:51:50.851Z,29.98
2018-01-14T06:54:16.838Z,32.22
2018-01-14T06:56:43.527Z,32.85
2018-01-14T06:59:09.484Z,27.67
2018-01-14T07:01:36.323Z,27.48
2018-01-14T07:04:02.292Z,30.25
2018-01-14T07:06:28.231Z,30.10
2018-01-14T07:08:54.184Z,25.90
2018-01-14T07:11:20.148Z,24.08
2018-01-14T07:13:46.076Z,30.48
2018-01-14T07:16:12.016Z,28.20
2018-01-14T07:18:38.112Z,25.05
2018-01-14T07:21:04.054Z,30.88
2018-01-14T07:23:30.064Z,27.93
2018-01-14T07:25:56.006Z,23.87
2018-01-14T07:28:22.015Z,27.02
2018-01-14T07:30:47.975Z,31.12
2018-01-14T07:33:13.975Z,26.62
2018-01-14T07:35:40.224Z,31.62
2018-01-14T07:38:06.173Z,26.60
2018-01-14T07:40:32.927Z,23.45
2018-01-14T07:42:58.882Z,25.37
2018-01-14T07:45:24.896Z,28.48
2018-01-14T07:47:51.142Z,25.70
2018-01-14T07:50:17.111Z,24.50
2018-01-14T07:52:43.959Z,31.52
2018-01-14T07:55:09.919Z,25.73
2018-01-14T07:57:35.916Z,25.65
2018-01-14T08:00:02.324Z,26.58
2018-01-14T08:02:29.020Z,25.52
2018-01-14T08:04:55.019Z,24.52
2018-01-14T08:07:21.000Z,26.92
2018-01-14T08:09:47.067Z,24.63
2018-01-14T08:12:13.831Z,27.30
2018-01-14T08:14:39.806Z,23.35
2018-01-14T08:17:06.510Z,26.80
2018-01-14T08:19:32.457Z,28.92
2018-01-14T08:21:59.171Z,29.08
2018-01-14T08:24:25.116Z,26.55
2018-01-14T08:26:52.839Z,25.95
2018-01-14T08:29:18.810Z,30.50
2018-01-14T08:31:45.499Z,26.77
2018-01-14T08:34:11.635Z,19.85
2018-01-14T08:36:37.576Z,22.83
2018-01-14T08:39:03.552Z,23.87
2018-01-14T08:41:29.521Z,24.45
2018-01-14T08:43:55.626Z,23.12
2018-01-14T08:46:21.599Z,19.67
2018-01-14T08:48:47.545Z,21.17
2018-01-14T08:51:13.533Z,21.60
2018-01-14T08:53:39.477Z,23.35
2018-01-14T08:56:05.455Z,24.60
2018-01-14T08:58:31.412Z,21.98
2018-01-14T09:00:57.511Z,25.17
2018-01-14T09:03:23.464Z,21.33
2018-01-14T09:05:49.536Z,23.33
2018-01-14T09:08:15.548Z,26.42
2018-01-14T09:10:41.489Z,19.48
2018-01-14T09:13:07.488Z,20.02
2018-01-14T09:15:33.447Z,21.80
2018-01-14T09:17:59.443Z,23.33
2018-01-14T09:20:25.397Z,20.20
2018-01-14T09:22:52.079Z,22.55
2018-01-14T09:25:18.072Z,19.17
2018-01-14T09:27:44.008Z,21.87
2018-01-14T09:30:10.111Z,23.40
2018-01-14T09:32:36.828Z,17.90
2018-01-14T09:35:02.932Z,17.67
2018-01-14T09:37:28.932Z,20.65
2018-01-14T09:39:54.880Z,17.60
2018-01-14T09:42:20.864Z,20.33
2018-01-14T09:44:47.081Z,18.10
2018-01-14T09:47:13.055Z,20.05
2018-01-14T09:49:39.015Z,17.30
2018-01-14T09:52:05.687Z,21.48
2018-01-14T09:54:31.796Z,16.65
2018-01-14T09:56:57.775Z,20.05
2018-01-14T09:59:23.724Z,20.48
2018-01-14T10:01:49.739Z,17.00
2018-01-14T10:04:16.426Z,19.73
2018-01-14T10:06:42.424Z,20.90
2018-01-14T10:09:08.387Z,16.37
2018-01-14T10:11:34.325Z,17.77
2018-01-14T10:14:00.436Z,17.60
2018-01-14T10:16:26.404Z,20.23
2018-01-14T10:18:52.396Z,22.65
2018-01-14T10:21:18.340Z,19.27
2018-01-14T10:23:44.284Z,19.55
2018-01-14T10:26:10.272Z,16.87
2018-01-14T10:28:37.143Z,20.12
2018-01-14T10:31:03.909Z,19.45
2018-01-14T10:33:29.869Z,20.62
2018-01-14T10:35:55.839Z,18.60
2018-01-14T10:38:21.788Z,19.55
2018-01-14T10:40:47.805Z,22.02
2018-01-14T10:43:13.779Z,20.12
2018-01-14T10:45:40.072Z,20.80
2018-01-14T10:48:06.355Z,19.23
2018-01-14T10:50:32.359Z,21.77
2018-01-14T10:52:59.098Z,22.92
2018-01-14T10:55:29.384Z,19.45
2018-01-14T10:57:56.508Z,20.12
2018-01-14T11:00:22.480Z,19.70
2018-01-14T11:02:48.584Z,22.05
2018-01-14T11:05:14.537Z,19.40
2018-01-14T11:07:41.231Z,19.90
2018-01-14T11:10:07.224Z,24.35
2018-01-14T11:12:33.181Z,24.63
2018-01-14T11:14:59.187Z,21.25
2018-01-14T11:17:25.149Z,17.80
2018-01-14T11:19:51.136Z,20.37
2018-01-14T11:22:17.119Z,23.60
2018-01-14T11:24:43.075Z,19.58
2018-01-14T11:27:09.215Z,29.90
2018-01-14T11:29:35.182Z,15.63
2018-01-14T11:32:01.873Z,21.40
2018-01-14T11:34:27.863Z,22.70
2018-01-14T11:36:53.800Z,17.48
2018-01-14T11:39:19.804Z,17.90
2018-01-14T11:41:45.769Z,15.32
2018-01-14T11:44:11.724Z,17.48
2018-01-14T11:46:38.704Z,20.15
2018-01-14T11:49:04.685Z,16.17
2018-01-14T11:51:30.673Z,16.60
2018-01-14T11:53:56.628Z,16.30
2018-01-14T11:56:22.752Z,19.25
2018-01-14T11:58:48.689Z,18.35
2018-01-14T12:01:15.400Z,18.90
2018-01-14T12:03:41.492Z,17.20
2018-01-14T12:06:07.440Z,19.10
2018-01-14T12:08:33.419Z,17.37
2018-01-14T12:10:59.367Z,15.73
2018-01-14T12:13:25.390Z,17.10
2018-01-14T12:15:51.362Z,15.48
2018-01-14T12:18:17.318Z,16.70
2018-01-14T12:20:43.328Z,16.08
2018-01-14T12:23:09.332Z,20.40
2018-01-14T12:25:36.022Z,16.12
2018-01-14T12:28:01.982Z,14.77
2018-01-14T12:30:27.935Z,19.30
2018-01-14T12:32:54.053Z,16.62
2018-01-14T12:35:20.058Z,15.05
2018-01-14T12:37:46.744Z,15.30
2018-01-14T12:40:12.765Z,14.80
2018-01-14T12:42:38.698Z,15.15
2018-01-14T12:45:04.839Z,16.30
2018-01-14T12:47:31.554Z,15.65
2018-01-14T12:49:57.529Z,13.27
2018-01-14T12:52:24.384Z,13.60
2018-01-14T12:54:51.082Z,13.52
2018-01-14T12:57:17.041Z,17.00
2018-01-14T12:59:43.775Z,17.83
2018-01-14T13:02:10.507Z,16.27
2018-01-14T13:04:36.455Z,12.75
2018-01-14T13:07:02.402Z,18.10
2018-01-14T13:09:28.515Z,14.65
2018-01-14T13:11:54.451Z,13.52
2018-01-14T13:14:20.470Z,15.67
2018-01-14T13:16:47.176Z,14.77
2018-01-14T13:19:13.128Z,17.42
2018-01-14T13:21:39.207Z,15.68
2018-01-14T13:24:05.899Z,13.20
2018-01-14T13:26:31.937Z,15.88
2018-01-14T13:28:57.872Z,16.40
2018-01-14T13:31:23.809Z,12.50
2018-01-14T13:33:49.781Z,14.67
2018-01-14T13:36:15.739Z,15.40
2018-01-14T13:38:41.735Z,13.95
2018-01-14T13:41:07.687Z,13.68
2018-01-14T13:43:33.641Z,12.30
2018-01-14T13:45:59.884Z,14.63
2018-01-14T13:48:25.828Z,16.10
2018-01-14T13:50:51.780Z,13.18
2018-01-14T13:53:17.755Z,15.95
2018-01-14T13:55:43.696Z,12.55
2018-01-14T13:58:09.687Z,13.60
2018-01-14T14:00:35.637Z,12.50
2018-01-14T14:03:01.592Z,13.48
2018-01-14T14:05:27.685Z,15.15
2018-01-14T14:07:53.624Z,15.07
2018-01-14T14:10:19.620Z,11.45
2018-01-14T14:12:45.572Z,15.52
2018-01-14T14:15:11.512Z,14.80
2018-01-14T14:17:37.926Z,12.93
2018-01-14T14:20:03.901Z,16.83
2018-01-14T14:22:29.875Z,17.05
2018-01-14T14:24:55.816Z,13.40
2018-01-14T14:27:21.798Z,14.13
2018-01-14T14:29:47.776Z,13.75
2018-01-14T14:32:13.728Z,13.60
2018-01-14T14:34:39.824Z,10.90
2018-01-14T14:37:05.790Z,12.20
2018-01-14T14:39:31.744Z,11.75
2018-01-14T14:41:57.788Z,11.27
2018-01-14T14:44:24.487Z,11.82
2018-01-14T14:46:50.489Z,11.52
2018-01-14T14:49:16.446Z,10.65
2018-01-14T14:51:42.395Z,11.18
2018-01-14T14:54:08.492Z,10.80
2018-01-14T14:56:34.420Z,14.48
2018-01-14T14:59:00.416Z,14.30
2018-01-14T15:01:26.382Z,14.43
2018-01-14T15:03:52.329Z,9.93
2018-01-14T15:06:18.301Z,9.95
2018-01-14T15:08:44.241Z,11.65
2018-01-14T15:11:11.104Z,12.70
2018-01-14T15:16:28.495Z,10.80
2018-01-14T15:18:54.475Z,12.52
2018-01-14T15:21:20.461Z,10.52
2018-01-14T15:23:47.176Z,10.07
2018-01-14T15:26:13.130Z,12.95
2018-01-14T15:28:39.840Z,10.63
2018-01-14T15:31:05.786Z,11.50
2018-01-14T15:33:32.508Z,11.90
2018-01-14T15:35:58.748Z,13.00
2018-01-14T15:38:24.696Z,11.93
2018-01-14T15:40:50.636Z,10.75
2018-01-14T15:43:16.667Z,11.37
2018-01-14T15:45:42.624Z,9.65
2018-01-14T15:48:08.566Z,11.85
2018-01-14T15:50:34.558Z,10.88
2018-01-14T15:53:00.540Z,11.15
2018-01-14T15:55:26.492Z,11.15
2018-01-14T15:58:00.393Z,11.07
2018-01-14T16:00:33.456Z,12.00
2018-01-14T16:02:59.448Z,11.50
2018-01-14T16:05:26.164Z,11.55
2018-01-14T16:07:52.120Z,11.80
2018-01-14T16:10:18.853Z,10.52
2018-01-14T16:12:45.524Z,10.50
2018-01-14T16:15:11.512Z,12.35
2018-01-14T16:17:38.209Z,9.75
2018-01-14T16:20:04.183Z,11.32
2018-01-14T16:22:31.033Z,14.15
2018-01-14T16:24:57.746Z,11.45
2018-01-14T16:27:23.766Z,10.43
2018-01-14T16:29:49.720Z,13.90
2018-01-14T16:32:15.677Z,12.32
2018-01-14T16:34:41.816Z,10.63
2018-01-14T16:37:07.768Z,10.90
2018-01-14T16:39:34.592Z,13.18
2018-01-14T16:42:00.576Z,15.20
2018-01-14T16:44:26.569Z,12.32
2018-01-14T16:46:53.272Z,12.85
2018-01-14T16:49:19.216Z,12.23
2018-01-14T16:51:45.212Z,11.70
2018-01-14T16:54:11.162Z,13.05
2018-01-14T16:56:37.944Z,14.87
2018-01-14T16:59:03.913Z,12.27
2018-01-14T17:01:29.885Z,10.65
2018-01-14T17:03:55.858Z,11.38
2018-01-14T17:06:21.816Z,11.63
2018-01-14T17:08:47.796Z,17.58
2018-01-14T17:11:13.789Z,11.43
2018-01-14T17:13:39.754Z,11.57
2018-01-14T17:16:06.605Z,12.07
2018-01-14T17:18:32.577Z,13.15
2018-01-14T17:20:58.557Z,14.07
2018-01-14T17:23:25.272Z,11.38
2018-01-14T17:25:51.236Z,16.87
2018-01-14T17:28:17.204Z,13.20
2018-01-14T17:30:43.158Z,13.02
2018-01-14T17:33:10.025Z,15.57
2018-01-14T17:35:36.167Z,11.65
2018-01-14T17:38:02.127Z,16.05
2018-01-14T17:40:28.136Z,17.25
2018-01-14T17:42:54.094Z,15.38
2018-01-14T17:45:20.121Z,15.00
2018-01-14T17:47:46.833Z,14.52
2018-01-14T17:50:13.523Z,13.60
2018-01-14T17:52:39.627Z,14.70
2018-01-14T17:55:07.220Z,13.50
2018-01-14T17:57:33.211Z,14.32
2018-01-14T17:59:59.209Z,14.23
2018-01-14T18:02:25.147Z,16.17
2018-01-14T18:04:51.989Z,15.37
2018-01-14T18:07:18.684Z,15.00
2018-01-14T18:09:44.672Z,19.73
2018-01-14T18:12:10.622Z,18.37
2018-01-14T18:14:36.623Z,16.92
2018-01-14T18:17:02.573Z,17.80
2018-01-14T18:19:28.694Z,19.92
2018-01-14T18:21:54.665Z,16.45
2018-01-14T18:24:21.372Z,17.37
2018-01-14T18:26:47.405Z,17.17
2018-01-14T18:29:13.384Z,16.42
2018-01-14T18:31:39.357Z,13.48
2018-01-14T18:34:05.480Z,15.27
2018-01-14T18:36:31.440Z,14.00
2018-01-14T18:38:57.446Z,16.33
2018-01-14T18:41:23.392Z,16.05
2018-01-14T18:43:49.339Z,16.27
2018-01-14T18:46:15.598Z,16.60
2018-01-14T18:48:41.559Z,16.98
2018-01-14T18:51:07.535Z,16.85
2018-01-14T18:53:33.561Z,21.77
2018-01-14T18:56:00.365Z,18.05
2018-01-14T18:58:26.580Z,17.02
2018-01-14T19:00:52.575Z,16.30
2018-01-14T19:03:18.567Z,15.25
2018-01-14T19:05:52.029Z,15.80
2018-01-14T19:08:25.233Z,17.10
2018-01-14T19:10:51.267Z,21.00
2018-01-14T19:13:17.251Z,16.73
2018-01-14T19:15:43.412Z,16.50
2018-01-14T19:18:09.553Z,14.18
2018-01-14T19:20:36.435Z,16.45
2018-01-14T19:23:02.769Z,17.35
2018-01-14T19:25:28.803Z,18.90
2018-01-14T19:27:54.864Z,15.95
2018-01-14T19:30:20.961Z,18.73
2018-01-14T19:32:47.038Z,15.40
2018-01-14T19:35:13.871Z,17.02
2018-01-14T19:37:39.931Z,15.88
2018-01-14T19:40:06.034Z,17.75
2018-01-14T19:42:32.297Z,17.77
2018-01-14T19:44:59.245Z,14.45
2018-01-14T19:47:25.485Z,19.27
2018-01-14T19:49:51.558Z,16.92
2018-01-14T19:52:17.738Z,17.35
2018-01-14T19:54:43.993Z,13.65
2018-01-14T19:57:11.069Z,15.98
2018-01-14T19:59:37.295Z,16.60
2018-01-14T20:02:03.549Z,17.55
2018-01-14T20:04:29.825Z,20.20
2018-01-14T20:06:56.825Z,21.45
2018-01-14T20:09:23.133Z,17.12
2018-01-14T20:11:49.432Z,16.98
2018-01-14T20:14:16.049Z,17.77
2018-01-14T20:16:43.051Z,19.90
2018-01-14T20:19:09.321Z,16.83
2018-01-14T20:21:35.586Z,19.70
2018-01-14T20:24:01.971Z,19.35
2018-01-14T20:26:28.272Z,17.37
2018-01-14T20:28:54.576Z,17.10
2018-01-14T20:31:20.925Z,17.87
2018-01-14T20:33:47.216Z,18.77
2018-01-14T20:36:14.222Z,21.27
2018-01-14T20:38:40.478Z,17.98
2018-01-14T20:41:06.769Z,18.50
2018-01-14T20:43:33.007Z,19.80
2018-01-14T20:45:59.429Z,19.58
2018-01-14T20:48:25.850Z,18.85
2018-01-14T20:50:51.856Z,23.45
2018-01-14T20:53:17.834Z,22.10
2018-01-14T20:55:43.788Z,17.85
2018-01-14T20:58:09.792Z,19.70
2018-01-14T21:00:35.785Z,21.52
2018-01-14T21:03:01.693Z,21.20
2018-01-14T21:05:27.672Z,29.58
2018-01-14T21:07:53.605Z,27.85
2018-01-14T21:10:19.621Z,26.37
2018-01-14T21:12:45.562Z,24.98
2018-01-14T21:15:11.677Z,30.00
2018-01-14T21:17:37.629Z,27.10
2018-01-14T21:20:03.577Z,34.10
2018-01-14T21:22:29.544Z,37.33
2018-01-14T21:24:55.484Z,32.28
2018-01-14T21:27:21.452Z,26.17
2018-01-14T21:29:47.582Z,28.12
2018-01-14T21:32:14.252Z,23.73
2018-01-14T21:34:40.367Z,26.35
2018-01-14T21:37:06.388Z,23.12
2018-01-14T21:39:32.339Z,21.45
2018-01-14T21:41:58.320Z,23.50
2018-01-14T21:44:24.261Z,24.00
2018-01-14T21:46:50.392Z,22.15
2018-01-14T21:49:16.335Z,22.80
2018-01-14T21:51:43.028Z,24.50
2018-01-14T21:54:11.556Z,21.48
2018-01-14T21:56:38.249Z,20.25
2018-01-14T21:59:04.232Z,23.83
2018-01-14T22:01:30.912Z,22.23
2018-01-14T22:03:56.846Z,22.50
2018-01-14T22:06:22.954Z,18.70
2018-01-14T22:08:48.899Z,21.23
2018-01-14T22:11:14.867Z,22.42
2018-01-14T22:13:40.793Z,21.85
2018-01-14T22:16:06.801Z,20.53
2018-01-14T22:18:32.776Z,27.00
2018-01-14T22:20:58.724Z,20.42
2018-01-14T22:23:24.809Z,18.77
2018-01-14T22:25:50.760Z,20.90
2018-01-14T22:28:16.759Z,22.65
2018-01-14T22:30:42.722Z,20.58
2018-01-14T22:33:08.673Z,24.77
2018-01-14T22:35:34.669Z,19.05
2018-01-14T22:38:01.355Z,26.87
2018-01-14T22:40:27.328Z,24.42
2018-01-14T22:42:54.196Z,22.42
2018-01-14T22:45:20.301Z,21.33
2018-01-14T22:47:47.064Z,19.45
2018-01-14T22:50:13.007Z,21.45
2018-01-14T22:52:38.959Z,22.40
2018-01-14T22:55:04.921Z,21.92
2018-01-14T22:57:31.591Z,20.42
2018-01-14T22:59:57.704Z,21.85
2018-01-14T23:02:23.656Z,21.98
2018-01-14T23:04:49.748Z,21.95
2018-01-14T23:07:15.705Z,20.20
2018-01-14T23:09:41.637Z,27.37
2018-01-14T23:12:07.611Z,20.07
2018-01-14T23:14:33.576Z,20.48
2018-01-14T23:16:59.569Z,21.30
2018-01-14T23:19:25.532Z,29.70
2018-01-14T23:21:51.624Z,23.65
2018-01-14T23:24:17.591Z,25.27
2018-01-14T23:26:44.277Z,24.35
2018-01-14T23:29:10.208Z,28.60
2018-01-14T23:31:36.187Z,21.30
2018-01-14T23:34:03.044Z,21.25
2018-01-14T23:36:29.128Z,21.52
2018-01-14T23:38:55.088Z,24.98
2018-01-14T23:41:21.024Z,24.80
2018-01-14T23:43:46.975Z,25.93
2018-01-14T23:46:12.923Z,22.92
2018-01-14T23:48:38.928Z,21.50
2018-01-14T23:51:04.873Z,23.98
2018-01-14T23:53:30.951Z,24.42
2018-01-14T23:55:56.900Z,24.45
2018-01-14T23:58:22.896Z,24.55
